Time;durP1;ratioP1;P1;durP2;ratioP2;P2;SDS_P1;SDS_P2;PMS_P1;PMS_P2;Temp;Humidity;BMP_temperature;BMP_pressure;BME280_temperature;BME280_humidity;BME280_pressure;Samples;Min_cycle;Max_cycle;Signal;HPM_P1;HPM_P2
2023/04/21 00:01:00;;;;;;;26.83;17.00;;;7.90;99.90;;;;;;4998756;28;20046;-89
2023/04/21 00:03:27;;;;;;;24.27;16.63;;;8.00;99.90;;;;;;4997381;28;20050;-89
2023/04/21 00:05:55;;;;;;;26.08;17.52;;;8.00;99.90;;;;;;4998526;28;20888;-89
2023/04/21 00:08:20;;;;;;;26.52;17.60;;;8.00;99.90;;;;;;5008300;28;20081;-88
2023/04/21 00:10:46;;;;;;;29.35;17.40;;;7.90;99.90;;;;;;4993086;28;20030;-89
2023/04/21 00:13:12;;;;;;;27.00;17.50;;;7.90;99.90;;;;;;5010262;28;20437;-90
2023/04/21 00:15:38;;;;;;;28.17;17.75;;;7.90;99.90;;;;;;5012286;28;20371;-90
2023/04/21 00:18:04;;;;;;;25.10;16.77;;;7.90;99.90;;;;;;5011842;28;20026;-90
2023/04/21 00:20:30;;;;;;;30.90;19.25;;;7.90;99.90;;;;;;5012570;28;20022;-90
2023/04/21 00:22:56;;;;;;;28.67;17.13;;;7.90;99.90;;;;;;5009317;28;20065;-90
2023/04/21 00:25:23;;;;;;;30.63;18.80;;;8.00;99.90;;;;;;5012191;28;20026;-89
2023/04/21 00:27:48;;;;;;;31.27;19.25;;;8.00;99.90;;;;;;5008596;28;20069;-90
2023/04/21 00:30:14;;;;;;;29.67;17.33;;;7.90;99.90;;;;;;4993844;28;20066;-90
2023/04/21 00:32:39;;;;;;;32.15;18.95;;;7.90;99.90;;;;;;5009673;28;20133;-90
2023/04/21 00:35:05;;;;;;;35.35;20.13;;;7.90;99.90;;;;;;5009611;28;20546;-90
2023/04/21 00:37:31;;;;;;;32.88;19.25;;;8.00;99.90;;;;;;5015033;28;20034;-90
2023/04/21 00:39:57;;;;;;;29.58;19.63;;;7.90;99.90;;;;;;5015507;28;20022;-90
2023/04/21 00:42:23;;;;;;;33.53;20.17;;;8.00;99.90;;;;;;5015333;28;20037;-90
2023/04/21 00:44:49;;;;;;;34.40;20.20;;;8.00;99.90;;;;;;5015326;28;20030;-90
2023/04/21 00:47:15;;;;;;;34.13;22.67;;;8.00;99.90;;;;;;5008042;28;20038;-90
2023/04/21 00:49:40;;;;;;;28.98;17.48;;;8.00;99.90;;;;;;5015862;28;20022;-89
2023/04/21 00:52:07;;;;;;;33.60;19.92;;;8.00;99.90;;;;;;5015198;28;20109;-91
2023/04/21 00:54:34;;;;;;;35.13;20.40;;;8.00;99.90;;;;;;5003026;28;20521;-89
2023/04/21 00:57:00;;;;;;;37.40;23.13;;;8.00;99.90;;;;;;5005364;28;20045;-90
2023/04/21 00:59:26;;;;;;;36.92;21.38;;;8.00;99.90;;;;;;5003047;28;20615;-91
2023/04/21 01:01:52;;;;;;;39.85;23.58;;;8.00;99.90;;;;;;5007750;28;20030;-89
2023/04/21 01:04:18;;;;;;;36.97;22.38;;;7.90;99.90;;;;;;5014278;28;20038;-90
2023/04/21 01:06:44;;;;;;;43.20;24.10;;;7.90;99.90;;;;;;5014960;28;20026;-90
2023/04/21 01:09:11;;;;;;;43.65;23.92;;;8.00;99.90;;;;;;5006840;28;20598;-89
2023/04/21 01:11:37;;;;;;;42.70;24.83;;;7.90;99.90;;;;;;5007152;28;20058;-90
2023/04/21 01:14:04;;;;;;;43.35;25.20;;;8.00;99.90;;;;;;5015203;28;20045;-90
2023/04/21 01:16:31;;;;;;;41.80;23.98;;;8.00;99.90;;;;;;5011282;28;20046;-91
2023/04/21 01:18:57;;;;;;;41.13;24.35;;;8.00;99.90;;;;;;5012925;28;20072;-88
2023/04/21 01:21:23;;;;;;;39.72;23.27;;;8.00;99.90;;;;;;5011920;28;20505;-90
2023/04/21 01:23:49;;;;;;;46.85;26.58;;;8.00;99.90;;;;;;5014773;28;20029;-89
2023/04/21 01:26:20;;;;;;;43.15;24.75;;;8.00;99.90;;;;;;5008331;28;20030;-89
2023/04/21 01:28:47;;;;;;;45.45;26.25;;;8.00;99.90;;;;;;5008979;28;20025;-90
2023/04/21 01:31:17;;;;;;;47.90;26.08;;;8.00;99.90;;;;;;5011117;28;20457;-90
2023/04/21 01:33:43;;;;;;;47.70;26.58;;;8.00;99.90;;;;;;5015120;28;20151;-90
2023/04/21 01:36:09;;;;;;;50.53;28.27;;;8.00;99.90;;;;;;5013608;28;20065;-90
2023/04/21 01:38:41;;;;;;;42.63;25.15;;;8.00;99.90;;;;;;5006624;28;20033;-89
2023/04/21 01:41:07;;;;;;;48.50;26.65;;;8.10;99.90;;;;;;5014013;28;20033;-89
2023/04/21 01:43:32;;;;;;;51.97;28.27;;;8.00;99.90;;;;;;5014522;28;20030;-89
2023/04/21 01:45:58;;;;;;;49.92;28.27;;;8.00;99.90;;;;;;5013065;28;20026;-90
2023/04/21 01:48:23;;;;;;;49.88;26.67;;;8.00;99.90;;;;;;5014045;28;20419;-90
2023/04/21 01:50:49;;;;;;;55.88;29.10;;;8.00;99.90;;;;;;5006765;28;20034;-89
2023/04/21 01:53:15;;;;;;;50.05;28.90;;;8.00;99.90;;;;;;5003705;28;20033;-89
2023/04/21 01:55:40;;;;;;;44.88;26.40;;;8.00;99.90;;;;;;5004592;28;20033;-90
2023/04/21 01:58:06;;;;;;;50.03;28.95;;;8.00;99.90;;;;;;5011389;28;20022;-89
2023/04/21 02:00:31;;;;;;;50.25;25.98;;;8.00;99.90;;;;;;5014286;28;20482;-90
2023/04/21 02:02:57;;;;;;;50.58;28.30;;;8.00;99.90;;;;;;5004585;28;20042;-88
2023/04/21 02:05:22;;;;;;;51.13;29.33;;;8.00;99.90;;;;;;5014049;28;20030;-90
2023/04/21 02:07:48;;;;;;;57.72;30.40;;;8.00;99.90;;;;;;5010467;28;20490;-89
2023/04/21 02:10:13;;;;;;;46.85;28.08;;;8.00;99.90;;;;;;5001523;28;20510;-90
2023/04/21 02:12:39;;;;;;;51.90;30.00;;;8.00;99.90;;;;;;5011482;28;20022;-89
2023/04/21 02:15:05;;;;;;;54.88;30.23;;;8.00;99.90;;;;;;4995037;28;20057;-89
2023/04/21 02:17:31;;;;;;;54.30;30.75;;;8.00;99.90;;;;;;5020085;28;20022;-90
2023/04/21 02:19:56;;;;;;;54.50;31.95;;;8.00;99.90;;;;;;5014765;28;20033;-91
2023/04/21 02:22:22;;;;;;;57.70;32.00;;;8.00;99.90;;;;;;5013114;28;20088;-91
2023/04/21 02:24:49;;;;;;;53.72;30.58;;;8.00;99.90;;;;;;5003669;28;20191;-90
2023/04/21 02:27:14;;;;;;;56.33;32.42;;;8.00;99.90;;;;;;5006239;28;20117;-90
2023/04/21 02:29:40;;;;;;;54.20;31.45;;;8.00;99.90;;;;;;5010914;28;20097;-91
2023/04/21 02:32:06;;;;;;;56.00;32.03;;;8.00;99.90;;;;;;5002728;28;20470;-90
2023/04/21 02:34:32;;;;;;;51.92;30.40;;;8.00;99.90;;;;;;5012181;28;20034;-90
2023/04/21 02:36:58;;;;;;;56.40;31.65;;;8.00;99.90;;;;;;5010484;28;20099;-90
2023/04/21 02:39:24;;;;;;;55.67;30.45;;;8.00;99.90;;;;;;5005973;28;20471;-90
2023/04/21 02:41:49;;;;;;;57.55;30.88;;;8.00;99.90;;;;;;5018141;28;20080;-90
2023/04/21 02:44:15;;;;;;;58.15;33.05;;;8.00;99.90;;;;;;5013348;28;20034;-91
2023/04/21 02:46:41;;;;;;;61.35;33.67;;;8.00;99.90;;;;;;5012107;28;20021;-90
2023/04/21 02:49:06;;;;;;;57.65;32.33;;;8.00;99.90;;;;;;5001382;28;20113;-92
2023/04/21 02:51:32;;;;;;;61.13;34.83;;;8.00;99.90;;;;;;5012819;28;20026;-92
2023/04/21 02:53:57;;;;;;;61.08;33.17;;;8.00;99.90;;;;;;5006632;28;20022;-90
2023/04/21 02:56:23;;;;;;;58.83;32.78;;;8.00;99.90;;;;;;5001805;28;20038;-90
2023/04/21 02:58:48;;;;;;;58.75;32.75;;;8.00;99.90;;;;;;5012373;28;20033;-90
2023/04/21 03:01:14;;;;;;;59.42;33.45;;;8.00;99.90;;;;;;5013856;28;20026;-90
2023/04/21 03:03:40;;;;;;;60.38;33.83;;;8.00;99.90;;;;;;5003958;28;20122;-90
2023/04/21 03:06:05;;;;;;;60.10;32.50;;;8.00;99.90;;;;;;5010474;28;20025;-90
2023/04/21 03:08:31;;;;;;;60.78;34.70;;;8.00;99.90;;;;;;5007682;28;20024;-90
2023/04/21 03:10:57;;;;;;;51.55;29.88;;;8.00;99.90;;;;;;5011351;28;20034;-91
2023/04/21 03:13:23;;;;;;;59.60;33.35;;;8.00;99.90;;;;;;5013106;28;20030;-89
2023/04/21 03:15:49;;;;;;;63.42;34.83;;;8.00;99.90;;;;;;5013286;28;20034;-91
2023/04/21 03:18:15;;;;;;;66.80;35.63;;;8.00;99.90;;;;;;5014189;28;20049;-90
2023/04/21 03:20:40;;;;;;;64.22;34.75;;;8.00;99.90;;;;;;5013257;28;20061;-91
2023/04/21 03:23:06;;;;;;;65.07;35.22;;;8.00;99.90;;;;;;5012542;28;20094;-90
2023/04/21 03:25:32;;;;;;;55.20;33.65;;;8.00;99.90;;;;;;5011712;28;20065;-89
2023/04/21 03:27:57;;;;;;;57.95;34.47;;;8.00;99.90;;;;;;5008959;28;20110;-90
2023/04/21 03:30:25;;;;;;;65.78;35.30;;;8.00;99.90;;;;;;5003405;28;20045;-90
2023/04/21 03:32:50;;;;;;;62.13;34.70;;;8.00;99.90;;;;;;5010514;28;20084;-91
2023/04/21 03:35:16;;;;;;;67.05;37.28;;;8.00;99.90;;;;;;4999782;28;20030;-90
2023/04/21 03:37:42;;;;;;;60.38;34.80;;;8.10;99.90;;;;;;5013057;28;20068;-89
2023/04/21 03:40:08;;;;;;;66.63;37.00;;;8.00;99.90;;;;;;5008143;28;20026;-91
2023/04/21 03:42:34;;;;;;;62.70;35.63;;;8.00;99.90;;;;;;5007436;28;20030;-90
2023/04/21 03:45:04;;;;;;;63.63;36.33;;;8.10;99.90;;;;;;4993657;28;20054;-89
2023/04/21 03:47:30;;;;;;;69.22;39.38;;;8.10;99.90;;;;;;5012241;28;20022;-90
2023/04/21 03:49:55;;;;;;;65.88;37.35;;;8.10;99.90;;;;;;5007358;28;20112;-90
2023/04/21 03:52:21;;;;;;;67.88;38.88;;;8.10;99.90;;;;;;5012497;28;20033;-89
2023/04/21 03:54:47;;;;;;;60.60;36.08;;;8.10;99.90;;;;;;5011972;28;20101;-89
2023/04/21 03:57:14;;;;;;;68.40;38.80;;;8.10;99.90;;;;;;5009685;28;20077;-91
2023/04/21 03:59:39;;;;;;;65.30;37.22;;;8.10;99.90;;;;;;5008396;28;20034;-90
2023/04/21 04:02:05;;;;;;;68.55;39.70;;;8.10;99.90;;;;;;5012126;28;20040;-91
2023/04/21 04:04:31;;;;;;;69.68;37.92;;;8.10;99.90;;;;;;5010179;28;20046;-90
2023/04/21 04:06:56;;;;;;;70.40;38.40;;;8.10;99.90;;;;;;5008686;28;20034;-91
2023/04/21 04:09:22;;;;;;;65.07;36.63;;;8.10;99.90;;;;;;5010854;28;20041;-91
2023/04/21 04:11:48;;;;;;;72.88;39.85;;;8.10;99.90;;;;;;5008047;28;20053;-85
2023/04/21 04:14:13;;;;;;;69.75;38.60;;;8.00;99.90;;;;;;5011485;28;20025;-82
2023/04/21 04:16:40;;;;;;;71.72;40.92;;;8.10;99.90;;;;;;5014758;28;20128;-91
2023/04/21 04:19:06;;;;;;;69.00;39.50;;;8.10;99.90;;;;;;5011186;28;20041;-89
2023/04/21 04:21:32;;;;;;;75.07;41.67;;;8.00;99.90;;;;;;5001994;28;20030;-90
2023/04/21 04:23:58;;;;;;;73.72;42.58;;;8.00;99.90;;;;;;5017294;28;20010;-90
2023/04/21 04:26:24;;;;;;;70.95;41.83;;;8.10;99.90;;;;;;5017409;28;20072;-89
2023/04/21 04:28:51;;;;;;;75.80;44.05;;;8.00;99.90;;;;;;5011161;28;20018;-90
2023/04/21 04:31:16;;;;;;;80.38;44.55;;;8.10;99.90;;;;;;5014018;28;20033;-90
2023/04/21 04:33:42;;;;;;;74.22;42.78;;;8.10;99.90;;;;;;5011909;28;20030;-91
2023/04/21 04:36:10;;;;;;;71.50;41.92;;;8.10;99.90;;;;;;5015975;28;20065;-90
2023/04/21 04:38:36;;;;;;;72.93;41.25;;;8.00;99.90;;;;;;5016711;28;20022;-92
2023/04/21 04:41:03;;;;;;;77.00;43.58;;;8.00;99.90;;;;;;5019033;28;20021;-90
2023/04/21 04:43:32;;;;;;;77.00;43.00;;;8.00;99.90;;;;;;5004537;28;21585;-90
2023/04/21 04:45:58;;;;;;;72.47;41.80;;;8.00;99.90;;;;;;5015807;28;20026;-90
2023/04/21 04:48:24;;;;;;;69.72;41.13;;;8.00;99.90;;;;;;5012572;28;20030;-90
2023/04/21 04:50:49;;;;;;;77.28;45.10;;;8.00;99.90;;;;;;5016280;28;20021;-91
2023/04/21 04:53:15;;;;;;;70.72;43.10;;;8.00;99.90;;;;;;5014706;28;20026;-89
2023/04/21 04:55:40;;;;;;;77.53;43.70;;;8.00;99.90;;;;;;5014544;28;20068;-92
2023/04/21 04:58:06;;;;;;;74.55;42.60;;;8.00;99.90;;;;;;5012887;28;20087;-89
2023/04/21 05:00:32;;;;;;;77.03;43.92;;;8.00;99.90;;;;;;5017844;28;20033;-90
2023/04/21 05:02:57;;;;;;;71.10;42.17;;;8.00;99.90;;;;;;5010467;28;20096;-91
2023/04/21 05:05:23;;;;;;;76.80;44.20;;;8.00;99.90;;;;;;5015896;28;20057;-89
2023/04/21 05:07:49;;;;;;;80.38;45.83;;;8.00;99.90;;;;;;5015075;28;20437;-90
2023/04/21 05:10:15;;;;;;;78.10;43.50;;;8.00;99.90;;;;;;5015181;28;20246;-90
2023/04/21 05:12:41;;;;;;;75.35;45.35;;;8.00;99.90;;;;;;5011912;28;20022;-90
2023/04/21 05:15:07;;;;;;;82.00;44.35;;;8.00;99.90;;;;;;5014804;28;20104;-90
2023/04/21 05:17:33;;;;;;;62.13;36.50;;;8.10;99.90;;;;;;5015172;28;20536;-89
2023/04/21 05:19:58;;;;;;;75.68;43.22;;;8.10;99.90;;;;;;5014980;28;20029;-89
2023/04/21 05:22:24;;;;;;;75.07;44.60;;;8.10;99.90;;;;;;5012629;28;20029;-89
2023/04/21 05:24:51;;;;;;;76.50;42.85;;;8.10;99.90;;;;;;5014291;28;20084;-88
2023/04/21 05:27:16;;;;;;;82.45;45.92;;;8.10;99.90;;;;;;5014979;28;20037;-87
2023/04/21 05:29:42;;;;;;;70.00;41.28;;;8.10;99.90;;;;;;5012396;28;20018;-88
2023/04/21 05:32:08;;;;;;;78.80;44.72;;;8.20;99.90;;;;;;5015013;28;20478;-88
2023/04/21 05:34:33;;;;;;;80.75;46.30;;;8.20;99.90;;;;;;5015160;28;20033;-88
2023/04/21 05:36:59;;;;;;;77.38;44.40;;;8.20;99.90;;;;;;4998482;28;20039;-88
2023/04/21 05:39:26;;;;;;;84.57;47.75;;;8.30;99.90;;;;;;5005329;28;20013;-89
2023/04/21 05:41:52;;;;;;;79.38;44.42;;;8.20;99.90;;;;;;5012923;28;20033;-88
2023/04/21 05:44:18;;;;;;;80.72;45.85;;;8.30;99.90;;;;;;5013839;28;20219;-89
2023/04/21 05:46:43;;;;;;;74.90;43.83;;;8.30;99.90;;;;;;5013821;28;20036;-88
2023/04/21 05:49:09;;;;;;;76.88;43.38;;;8.30;99.90;;;;;;5001224;28;20065;-88
2023/04/21 05:51:34;;;;;;;84.78;49.60;;;8.30;99.90;;;;;;5012328;28;20114;-88
2023/04/21 05:54:00;;;;;;;80.85;45.63;;;8.40;99.90;;;;;;5011372;28;20018;-89
2023/04/21 05:56:25;;;;;;;82.70;46.50;;;8.40;99.90;;;;;;5006618;28;20409;-89
2023/04/21 05:58:51;;;;;;;81.38;46.65;;;8.40;99.90;;;;;;5009219;28;20022;-90
2023/04/21 06:01:16;;;;;;;81.30;45.53;;;8.50;99.90;;;;;;5007613;28;20022;-90
2023/04/21 06:03:42;;;;;;;77.55;46.63;;;8.50;99.90;;;;;;5004790;28;20078;-89
2023/04/21 06:06:09;;;;;;;79.38;45.75;;;8.50;99.90;;;;;;4995062;28;20030;-90
2023/04/21 06:08:34;;;;;;;76.05;43.00;;;8.60;99.90;;;;;;4995042;28;20112;-90
2023/04/21 06:11:00;;;;;;;78.20;44.53;;;8.60;99.90;;;;;;5011233;28;20072;-91
2023/04/21 06:13:26;;;;;;;79.05;46.67;;;8.60;99.90;;;;;;5021025;28;20108;-89
2023/04/21 06:15:52;;;;;;;76.97;44.58;;;8.60;99.90;;;;;;5000730;28;20042;-89
2023/04/21 06:18:18;;;;;;;80.32;44.75;;;8.70;99.90;;;;;;5013878;28;20348;-89
2023/04/21 06:20:50;;;;;;;71.43;43.85;;;8.80;99.90;;;;;;5012328;28;20037;-89
2023/04/21 06:23:15;;;;;;;77.30;44.20;;;9.00;99.90;;;;;;5009167;28;20519;-89
2023/04/21 06:25:41;;;;;;;71.45;43.72;;;9.10;99.90;;;;;;5004155;28;20077;-90
2023/04/21 06:28:06;;;;;;;62.60;38.15;;;9.20;99.90;;;;;;4994995;28;20105;-89
2023/04/21 06:30:32;;;;;;;71.68;40.90;;;9.30;99.90;;;;;;5006293;28;20030;-90
2023/04/21 06:32:57;;;;;;;72.03;43.72;;;9.40;99.90;;;;;;5002678;28;20030;-88
2023/04/21 06:35:23;;;;;;;71.30;44.00;;;9.40;99.90;;;;;;5018448;28;20085;-89
2023/04/21 06:37:48;;;;;;;73.57;44.40;;;9.40;99.90;;;;;;5014302;28;20099;-89
2023/04/21 06:40:16;;;;;;;70.50;43.10;;;9.40;99.90;;;;;;5014146;28;20022;-89
2023/04/21 06:42:42;;;;;;;62.50;38.88;;;9.50;99.90;;;;;;5002684;28;20170;-88
2023/04/21 06:45:08;;;;;;;55.83;34.53;;;9.60;99.90;;;;;;4995359;28;20125;-88
2023/04/21 06:47:33;;;;;;;60.25;38.65;;;9.60;99.90;;;;;;5001778;28;20116;-88
2023/04/21 06:49:59;;;;;;;63.17;39.85;;;9.70;99.90;;;;;;5000238;28;20457;-88
2023/04/21 06:52:25;;;;;;;63.67;40.35;;;9.70;99.90;;;;;;5007170;28;20533;-89
2023/04/21 06:54:50;;;;;;;62.90;38.72;;;9.70;99.90;;;;;;5002723;28;20026;-88
2023/04/21 06:57:16;;;;;;;57.53;38.03;;;9.70;99.90;;;;;;5003466;28;20049;-89
2023/04/21 06:59:42;;;;;;;56.35;35.83;;;9.90;99.90;;;;;;5007332;28;20034;-87
2023/04/21 07:02:08;;;;;;;67.25;39.25;;;10.00;99.90;;;;;;5001436;28;20026;-88
2023/04/21 07:04:34;;;;;;;55.80;35.67;;;10.00;99.90;;;;;;5023192;28;20045;-88
2023/04/21 07:06:59;;;;;;;58.10;37.30;;;10.10;99.90;;;;;;5000673;28;20113;-88
2023/04/21 07:09:27;;;;;;;55.92;37.28;;;10.20;99.90;;;;;;5002968;28;20666;-87
2023/04/21 07:11:53;;;;;;;56.72;37.55;;;10.30;99.90;;;;;;5010675;28;20368;-89
2023/04/21 07:14:18;;;;;;;57.25;37.38;;;10.40;99.90;;;;;;5008212;28;20494;-87
2023/04/21 07:16:44;;;;;;;55.10;35.95;;;10.50;99.90;;;;;;4993073;28;20035;-88
2023/04/21 07:19:09;;;;;;;53.97;35.28;;;10.60;99.90;;;;;;5001390;28;20046;-88
2023/04/21 07:21:35;;;;;;;52.90;34.33;;;10.70;99.90;;;;;;5013135;28;20030;-87
2023/04/21 07:24:01;;;;;;;51.47;33.78;;;10.90;99.90;;;;;;5012096;28;20045;-87
2023/04/21 07:26:27;;;;;;;46.20;29.50;;;11.00;99.90;;;;;;5000603;28;20045;-86
2023/04/21 07:28:54;;;;;;;51.45;30.25;;;11.10;99.90;;;;;;4993672;28;20479;-87
2023/04/21 07:31:20;;;;;;;45.50;31.80;;;11.10;99.90;;;;;;5010328;28;20040;-87
2023/04/21 07:33:45;;;;;;;51.15;30.80;;;11.20;99.90;;;;;;5008063;28;20113;-88
2023/04/21 07:36:11;;;;;;;47.75;29.90;;;11.30;99.90;;;;;;4999958;28;20042;-88
2023/04/21 07:38:37;;;;;;;43.55;28.38;;;11.40;99.90;;;;;;4998732;28;20457;-88
2023/04/21 07:41:03;;;;;;;40.95;28.63;;;11.50;99.90;;;;;;4993502;28;20058;-87
2023/04/21 07:43:30;;;;;;;40.47;28.08;;;11.60;99.90;;;;;;4993537;28;20030;-87
2023/04/21 07:45:56;;;;;;;39.47;27.48;;;11.60;99.90;;;;;;5012619;28;20488;-87
2023/04/21 07:48:21;;;;;;;42.58;29.08;;;11.80;99.90;;;;;;5002451;28;20031;-88
2023/04/21 07:50:49;;;;;;;35.78;25.20;;;11.80;99.90;;;;;;5008200;28;20029;-87
2023/04/21 07:53:14;;;;;;;39.00;27.25;;;11.80;99.90;;;;;;5018030;28;20022;-88
2023/04/21 07:55:40;;;;;;;38.28;27.65;;;11.70;99.90;;;;;;5015933;28;20045;-86
2023/04/21 07:58:06;;;;;;;38.53;27.40;;;11.70;99.90;;;;;;5002823;28;20030;-87
2023/04/21 08:00:31;;;;;;;39.08;27.67;;;11.70;99.90;;;;;;5001227;28;20053;-88
2023/04/21 08:02:57;;;;;;;38.47;27.27;;;11.70;99.90;;;;;;5014212;28;20633;-87
2023/04/21 08:05:23;;;;;;;35.60;25.40;;;11.70;99.90;;;;;;5016695;28;20026;-88
2023/04/21 08:07:48;;;;;;;36.70;27.27;;;11.90;99.90;;;;;;5011973;28;20381;-87
2023/04/21 08:10:14;;;;;;;38.67;27.77;;;11.90;99.90;;;;;;5018566;28;20030;-86
2023/04/21 08:12:39;;;;;;;34.00;24.80;;;12.10;99.90;;;;;;5019368;28;20030;-87
2023/04/21 08:15:07;;;;;;;37.17;27.73;;;12.30;99.90;;;;;;5018573;28;20061;-86
2023/04/21 08:17:33;;;;;;;39.28;28.27;;;12.40;99.90;;;;;;5018035;28;22154;-86
2023/04/21 08:19:58;;;;;;;42.05;29.38;;;12.50;99.90;;;;;;5013612;28;20030;-87
2023/04/21 08:22:24;;;;;;;40.70;28.67;;;12.60;99.90;;;;;;5001096;28;20149;-87
2023/04/21 08:24:49;;;;;;;34.90;26.63;;;12.80;99.90;;;;;;5011394;28;20387;-87
2023/04/21 08:27:15;;;;;;;35.83;26.80;;;13.00;99.90;;;;;;5018000;28;20501;-87
2023/04/21 08:29:40;;;;;;;34.60;25.58;;;13.00;99.90;;;;;;5003557;28;20038;-86
2023/04/21 08:32:06;;;;;;;35.75;25.95;;;12.90;99.90;;;;;;5014223;28;20029;-88
2023/04/21 08:34:31;;;;;;;36.28;26.30;;;12.90;99.90;;;;;;5004832;28;20096;-86
2023/04/21 08:36:57;;;;;;;39.20;27.98;;;13.00;99.90;;;;;;5008704;28;20042;-86
2023/04/21 08:39:23;;;;;;;36.15;25.50;;;13.20;99.90;;;;;;4999218;28;20030;-87
2023/04/21 08:41:49;;;;;;;31.42;23.63;;;13.30;99.90;;;;;;4999695;28;20038;-87
2023/04/21 08:44:15;;;;;;;31.48;24.45;;;13.30;99.90;;;;;;5007211;28;20022;-87
2023/04/21 08:46:42;;;;;;;30.45;22.98;;;13.40;99.90;;;;;;5008235;28;20037;-87
2023/04/21 08:49:09;;;;;;;34.28;23.92;;;13.50;99.90;;;;;;5013368;28;20416;-87
2023/04/21 08:51:35;;;;;;;33.33;24.55;;;13.50;99.90;;;;;;5017077;28;20348;-88
2023/04/21 08:54:00;;;;;;;32.80;25.15;;;13.40;99.90;;;;;;5003753;28;20077;-87
2023/04/21 08:56:26;;;;;;;34.92;26.45;;;13.50;99.90;;;;;;5011722;28;20034;-87
2023/04/21 08:58:52;;;;;;;32.45;24.73;;;13.50;99.90;;;;;;4996844;28;20039;-87
2023/04/21 09:01:18;;;;;;;33.15;24.42;;;13.50;99.90;;;;;;5003847;28;20079;-87
2023/04/21 09:03:43;;;;;;;34.55;25.17;;;13.60;99.90;;;;;;5012221;28;20503;-87
2023/04/21 09:06:11;;;;;;;31.13;26.00;;;13.70;99.90;;;;;;5001104;28;20036;-88
2023/04/21 09:08:40;;;;;;;29.25;23.98;;;13.70;99.90;;;;;;5011544;28;20402;-88
2023/04/21 09:11:06;;;;;;;35.53;26.90;;;13.80;99.90;;;;;;5000642;28;20095;-87
2023/04/21 09:13:34;;;;;;;33.45;26.80;;;13.90;99.90;;;;;;5006271;28;20065;-87
2023/04/21 09:16:02;;;;;;;34.20;26.23;;;13.90;99.90;;;;;;5013958;28;20034;-88
2023/04/21 09:18:34;;;;;;;35.35;25.45;;;14.00;99.90;;;;;;5013264;28;20040;-88
2023/04/21 09:21:09;;;;;;;31.45;24.80;;;14.00;99.90;;;;;;5015362;28;20092;-88
2023/04/21 09:23:54;;;;;;;34.53;27.25;;;14.00;99.90;;;;;;5016036;28;20037;-87
2023/04/21 09:26:24;;;;;;;34.47;25.77;;;14.00;99.90;;;;;;5015149;28;20425;-86
2023/04/21 09:28:51;;;;;;;32.65;26.38;;;14.10;99.90;;;;;;5006472;28;20166;-87
2023/04/21 09:31:19;;;;;;;32.85;25.67;;;14.20;99.90;;;;;;5001621;28;20026;-86
2023/04/21 09:33:51;;;;;;;30.95;24.13;;;14.40;99.90;;;;;;5013270;28;20030;-86
2023/04/21 09:36:22;;;;;;;33.47;25.00;;;14.40;99.90;;;;;;5010240;28;20121;-88
2023/04/21 09:38:57;;;;;;;31.27;24.88;;;14.40;99.90;;;;;;5010615;28;20081;-87
2023/04/21 09:41:24;;;;;;;30.77;24.95;;;14.50;99.90;;;;;;4998248;28;20099;-87
2023/04/21 09:43:50;;;;;;;33.90;26.20;;;14.50;99.90;;;;;;5008921;28;20026;-88
2023/04/21 09:46:16;;;;;;;29.85;23.98;;;14.50;99.90;;;;;;5004666;28;20030;-88
2023/04/21 09:48:46;;;;;;;29.85;24.63;;;14.50;99.90;;;;;;5002940;28;20123;-87
2023/04/21 09:51:13;;;;;;;31.35;25.88;;;14.50;99.90;;;;;;5002649;28;20038;-87
2023/04/21 09:53:40;;;;;;;32.50;25.27;;;14.50;99.90;;;;;;5006872;28;20034;-86
2023/04/21 09:56:11;;;;;;;31.33;24.10;;;14.50;99.90;;;;;;5015339;28;20041;-87
2023/04/21 09:58:45;;;;;;;28.50;23.27;;;14.60;99.90;;;;;;5007984;28;20490;-87
2023/04/21 10:01:12;;;;;;;28.67;22.65;;;14.70;99.90;;;;;;5008229;28;20033;-88
2023/04/21 10:03:39;;;;;;;27.50;22.33;;;14.70;99.90;;;;;;5010261;28;20141;-89
2023/04/21 10:06:05;;;;;;;29.40;21.77;;;14.60;99.90;;;;;;5002163;28;20100;-88
2023/04/21 10:08:31;;;;;;;27.85;21.05;;;14.50;99.90;;;;;;5008269;28;20034;-88
2023/04/21 10:10:59;;;;;;;28.38;23.05;;;14.50;99.90;;;;;;5000770;28;20121;-87
2023/04/21 10:13:26;;;;;;;28.30;21.38;;;14.50;99.90;;;;;;5009761;28;20025;-88
2023/04/21 10:16:06;;;;;;;27.00;21.88;;;14.50;99.90;;;;;;5019300;28;20081;-87
2023/04/21 10:18:36;;;;;;;26.67;20.33;;;14.50;99.90;;;;;;5008155;28;20030;-87
2023/04/21 10:21:05;;;;;;;23.77;18.55;;;14.70;99.90;;;;;;5013860;28;20018;-86
2023/04/21 10:23:35;;;;;;;24.85;19.30;;;14.90;99.90;;;;;;5013771;28;20061;-87
2023/04/21 10:26:10;;;;;;;20.52;17.02;;;15.00;99.90;;;;;;5011296;28;20025;-87
2023/04/21 10:28:42;;;;;;;22.98;17.65;;;15.20;99.90;;;;;;4996610;28;20080;-87
2023/04/21 10:31:25;;;;;;;22.73;18.65;;;15.10;99.90;;;;;;5006847;28;20026;-88
2023/04/21 10:34:12;;;;;;;22.27;18.05;;;15.20;99.90;;;;;;5011968;28;20386;-87
2023/04/21 10:36:44;;;;;;;21.33;16.58;;;15.20;99.90;;;;;;5010925;28;20034;-87
2023/04/21 10:39:11;;;;;;;22.85;18.98;;;15.30;99.90;;;;;;5010269;28;20058;-87
2023/04/21 10:41:37;;;;;;;24.40;19.20;;;15.10;99.90;;;;;;5014224;28;20099;-87
2023/04/21 10:44:10;;;;;;;22.55;18.50;;;15.10;99.90;;;;;;5007619;28;20424;-87
2023/04/21 10:46:38;;;;;;;29.08;20.52;;;15.20;99.90;;;;;;5010475;28;20022;-87
2023/04/21 10:49:26;;;;;;;27.73;20.90;;;15.20;99.90;;;;;;5013367;28;20034;-83
2023/04/21 10:52:03;;;;;;;27.35;20.98;;;15.20;99.90;;;;;;5012340;28;20114;-87
2023/04/21 10:54:40;;;;;;;26.75;19.98;;;15.20;99.90;;;;;;5014347;28;20040;-86
2023/04/21 10:57:08;;;;;;;24.85;19.05;;;15.20;99.90;;;;;;5012868;28;20105;-87
2023/04/21 10:59:34;;;;;;;24.27;18.52;;;15.30;99.90;;;;;;5013417;28;20052;-87
2023/04/21 11:02:02;;;;;;;26.63;20.30;;;15.50;99.90;;;;;;5007340;28;20030;-87
2023/04/21 11:04:27;;;;;;;25.70;19.95;;;15.50;99.90;;;;;;5013565;28;20042;-87
2023/04/21 11:07:11;;;;;;;27.13;20.98;;;15.70;99.90;;;;;;4999934;28;20037;-86
2023/04/21 11:09:38;;;;;;;22.85;18.15;;;15.90;99.90;;;;;;5013272;28;20034;-87
2023/04/21 11:12:09;;;;;;;26.08;20.70;;;16.00;99.90;;;;;;5013931;28;20514;-87
2023/04/21 11:14:36;;;;;;;23.52;19.33;;;15.80;99.90;;;;;;5002505;28;20467;-88
2023/04/21 11:17:04;;;;;;;23.42;18.80;;;15.90;99.90;;;;;;5010257;28;20041;-88
2023/04/21 11:19:32;;;;;;;26.85;20.52;;;16.00;99.90;;;;;;5021299;28;20632;-87
2023/04/21 11:21:58;;;;;;;25.50;18.92;;;16.30;99.90;;;;;;5015057;28;20034;-86
2023/04/21 11:24:24;;;;;;;23.90;19.08;;;16.70;99.90;;;;;;5007011;28;20028;-87
2023/04/21 11:26:50;;;;;;;25.17;20.02;;;16.80;99.90;;;;;;5011821;28;20494;-84
2023/04/21 11:29:16;;;;;;;24.55;18.70;;;16.80;99.90;;;;;;5010350;28;20026;-88
2023/04/21 11:31:44;;;;;;;24.92;19.35;;;16.50;99.90;;;;;;5010685;28;20026;-88
2023/04/21 11:34:10;;;;;;;19.13;15.70;;;16.50;99.90;;;;;;4998762;28;20019;-87
2023/04/21 11:36:38;;;;;;;27.30;19.02;;;16.50;99.90;;;;;;5003871;28;20105;-87
2023/04/21 11:39:09;;;;;;;23.33;18.20;;;16.60;99.90;;;;;;5012995;28;20113;-87
2023/04/21 11:41:42;;;;;;;25.33;20.02;;;16.60;99.90;;;;;;5012161;28;20026;-86
2023/04/21 11:44:09;;;;;;;23.77;19.02;;;16.60;99.90;;;;;;5008729;28;20474;-86
2023/04/21 11:46:36;;;;;;;23.77;19.25;;;16.50;99.90;;;;;;5011646;28;20042;-89
2023/04/21 11:49:04;;;;;;;24.00;18.45;;;16.40;99.90;;;;;;5010601;28;20074;-87
2023/04/21 11:51:36;;;;;;;27.10;19.73;;;16.40;99.90;;;;;;5013340;28;20026;-88
2023/04/21 11:54:03;;;;;;;26.88;18.80;;;16.50;99.90;;;;;;5026147;28;20556;-87
2023/04/21 11:56:29;;;;;;;23.60;18.92;;;16.50;99.90;;;;;;5004526;28;20049;-88
2023/04/21 11:58:55;;;;;;;24.50;19.13;;;16.70;99.90;;;;;;5010689;28;20031;-87
2023/04/21 12:01:21;;;;;;;26.45;20.85;;;16.70;99.90;;;;;;5013368;28;20041;-86
2023/04/21 12:03:51;;;;;;;24.75;19.98;;;16.60;99.90;;;;;;5011867;28;20041;-88
2023/04/21 12:06:21;;;;;;;23.13;19.02;;;16.40;99.90;;;;;;5004178;28;20069;-88
2023/04/21 12:08:46;;;;;;;23.92;19.00;;;16.40;99.90;;;;;;5002728;28;20490;-87
2023/04/21 12:11:16;;;;;;;27.70;19.73;;;16.50;99.90;;;;;;5006917;28;20030;-88
2023/04/21 12:13:41;;;;;;;25.35;20.45;;;16.60;99.90;;;;;;5001519;28;20041;-88
2023/04/21 12:16:07;;;;;;;21.70;18.45;;;16.50;99.90;;;;;;5004969;28;20030;-88
2023/04/21 12:18:32;;;;;;;27.48;19.85;;;16.60;99.90;;;;;;5004022;28;20422;-88
2023/04/21 12:21:01;;;;;;;24.02;18.20;;;16.80;99.90;;;;;;5004969;28;20484;-89
2023/04/21 12:23:26;;;;;;;21.02;17.48;;;16.80;99.90;;;;;;5005752;28;20026;-88
2023/04/21 12:25:52;;;;;;;23.80;18.08;;;16.80;99.90;;;;;;5008479;28;20041;-89
2023/04/21 12:28:17;;;;;;;25.60;20.40;;;17.00;99.90;;;;;;5007422;28;20029;-88
2023/04/21 12:30:43;;;;;;;26.10;19.30;;;17.20;99.90;;;;;;5007085;28;20031;-87